sensor_id;sensor_type;location;lat;lon;timestamp;pressure;altitude;pressure_sealevel;temperature;humidity
70458;BME280;57919;56.194;95.716;2022-10-17T00:08:55;99697.56;;;-4.42;75.41
70458;BME280;57919;56.194;95.716;2022-10-17T00:18:57;99649.84;;;-4.76;75.77
70458;BME280;57919;56.194;95.716;2022-10-17T00:28:59;99660.81;;;-4.53;75.04
70458;BME280;57919;56.194;95.716;2022-10-17T00:39:02;99637.38;;;-4.68;75.18
70458;BME280;57919;56.194;95.716;2022-10-17T00:49:07;99637.84;;;-4.48;75.56
70458;BME280;57919;56.194;95.716;2022-10-17T00:59:11;99626.59;;;-4.17;74.91
70458;BME280;57919;56.194;95.716;2022-10-17T01:09:14;99620.06;;;-3.64;74.03
70458;BME280;57919;56.194;95.716;2022-10-17T01:19:42;99608.75;;;-3.35;73.83
70458;BME280;57919;56.194;95.716;2022-10-17T01:30:22;99601.25;;;-2.85;73.68
70458;BME280;57919;56.194;95.716;2022-10-17T01:50:38;99575.28;;;-1.86;72.85
70458;BME280;57919;56.194;95.716;2022-10-17T02:00:43;99560.50;;;-0.90;72.61
70458;BME280;57919;56.194;95.716;2022-10-17T02:10:57;99529.56;;;0.63;70.47
70458;BME280;57919;56.194;95.716;2022-10-17T02:21:13;99501.84;;;2.02;69.23
70458;BME280;57919;56.194;95.716;2022-10-17T02:31:28;99498.19;;;2.90;67.48
70458;BME280;57919;56.194;95.716;2022-10-17T02:41:32;99479.63;;;4.76;65.56
70458;BME280;57919;56.194;95.716;2022-10-17T02:51:42;99486.16;;;6.27;62.77
70458;BME280;57919;56.194;95.716;2022-10-17T03:01:46;99460.03;;;6.29;62.37
70458;BME280;57919;56.194;95.716;2022-10-17T03:11:48;99443.69;;;6.72;61.13
70458;BME280;57919;56.194;95.716;2022-10-17T03:21:51;99437.66;;;7.32;59.55
70458;BME280;57919;56.194;95.716;2022-10-17T03:31:54;99432.06;;;7.84;59.10
70458;BME280;57919;56.194;95.716;2022-10-17T03:41:56;99413.69;;;8.61;57.24
70458;BME280;57919;56.194;95.716;2022-10-17T03:51:58;99404.16;;;8.68;55.61
70458;BME280;57919;56.194;95.716;2022-10-17T04:02:02;99396.94;;;8.09;56.85
70458;BME280;57919;56.194;95.716;2022-10-17T04:12:04;99378.34;;;8.18;56.40
70458;BME280;57919;56.194;95.716;2022-10-17T04:22:07;99367.13;;;9.70;54.03
70458;BME280;57919;56.194;95.716;2022-10-17T04:32:12;99332.44;;;9.44;53.51
70458;BME280;57919;56.194;95.716;2022-10-17T04:42:20;99319.84;;;8.99;54.28
70458;BME280;57919;56.194;95.716;2022-10-17T04:52:23;99303.41;;;8.23;54.29
70458;BME280;57919;56.194;95.716;2022-10-17T05:02:27;99281.25;;;9.42;52.69
70458;BME280;57919;56.194;95.716;2022-10-17T05:12:30;99267.34;;;9.58;52.64
70458;BME280;57919;56.194;95.716;2022-10-17T05:22:32;99267.34;;;8.92;53.11
70458;BME280;57919;56.194;95.716;2022-10-17T05:32:35;99255.09;;;8.66;53.33
70458;BME280;57919;56.194;95.716;2022-10-17T05:42:37;99235.59;;;8.51;53.51
70458;BME280;57919;56.194;95.716;2022-10-17T05:52:38;99220.84;;;8.22;53.80
70458;BME280;57919;56.194;95.716;2022-10-17T06:02:47;99230.91;;;8.31;54.23
70458;BME280;57919;56.194;95.716;2022-10-17T06:12:50;99219.38;;;8.29;54.32
70458;BME280;57919;56.194;95.716;2022-10-17T06:22:53;99206.31;;;8.47;54.06
70458;BME280;57919;56.194;95.716;2022-10-17T06:33:16;99197.38;;;8.35;54.65
70458;BME280;57919;56.194;95.716;2022-10-17T06:43:19;99185.31;;;8.05;55.16
70458;BME280;57919;56.194;95.716;2022-10-17T06:53:38;99174.66;;;7.58;56.14
70458;BME280;57919;56.194;95.716;2022-10-17T07:03:59;99168.78;;;7.99;55.57
70458;BME280;57919;56.194;95.716;2022-10-17T07:14:03;99140.22;;;7.74;55.63
70458;BME280;57919;56.194;95.716;2022-10-17T07:24:05;99125.84;;;7.51;56.43
70458;BME280;57919;56.194;95.716;2022-10-17T07:34:08;99106.53;;;7.57;56.39
70458;BME280;57919;56.194;95.716;2022-10-17T07:44:10;99086.34;;;7.63;56.34
70458;BME280;57919;56.194;95.716;2022-10-17T07:54:19;99065.19;;;7.69;56.79
70458;BME280;57919;56.194;95.716;2022-10-17T08:04:21;99049.13;;;8.13;56.41
70458;BME280;57919;56.194;95.716;2022-10-17T08:14:24;99059.41;;;8.41;56.00
70458;BME280;57919;56.194;95.716;2022-10-17T08:24:25;99043.03;;;8.33;55.89
70458;BME280;57919;56.194;95.716;2022-10-17T08:34:27;99044.47;;;8.26;56.44
70458;BME280;57919;56.194;95.716;2022-10-17T08:54:53;98993.28;;;8.15;56.39
70458;BME280;57919;56.194;95.716;2022-10-17T09:05:21;98993.34;;;7.81;57.00
70458;BME280;57919;56.194;95.716;2022-10-17T09:15:30;98986.00;;;7.72;57.13
70458;BME280;57919;56.194;95.716;2022-10-17T09:25:42;98994.94;;;7.72;57.30
70458;BME280;57919;56.194;95.716;2022-10-17T09:35:45;98975.84;;;7.64;57.26
70458;BME280;57919;56.194;95.716;2022-10-17T09:56:14;98995.03;;;7.26;57.85
70458;BME280;57919;56.194;95.716;2022-10-17T10:06:19;98979.56;;;6.95;58.70
70458;BME280;57919;56.194;95.716;2022-10-17T10:16:29;98964.59;;;6.44;59.14
70458;BME280;57919;56.194;95.716;2022-10-17T10:47:08;98934.97;;;5.98;60.60
70458;BME280;57919;56.194;95.716;2022-10-17T10:57:19;98924.56;;;5.94;60.27
70458;BME280;57919;56.194;95.716;2022-10-17T11:17:44;98905.38;;;5.38;61.22
70458;BME280;57919;56.194;95.716;2022-10-17T11:27:46;98888.66;;;5.34;61.33
70458;BME280;57919;56.194;95.716;2022-10-17T11:48:35;98867.97;;;5.24;61.13
70458;BME280;57919;56.194;95.716;2022-10-17T12:08:55;98876.47;;;5.05;61.09
70458;BME280;57919;56.194;95.716;2022-10-17T12:29:25;98852.16;;;4.70;62.00
70458;BME280;57919;56.194;95.716;2022-10-17T12:49:39;98845.41;;;4.64;62.19
70458;BME280;57919;56.194;95.716;2022-10-17T12:59:42;98803.19;;;4.30;62.77
70458;BME280;57919;56.194;95.716;2022-10-17T13:09:46;98826.13;;;4.21;63.49
70458;BME280;57919;56.194;95.716;2022-10-17T13:19:49;98814.53;;;4.20;63.81
70458;BME280;57919;56.194;95.716;2022-10-17T13:29:51;98788.19;;;4.02;64.22
70458;BME280;57919;56.194;95.716;2022-10-17T13:39:53;98806.19;;;4.12;64.54
70458;BME280;57919;56.194;95.716;2022-10-17T13:49:56;98799.97;;;4.12;64.15
70458;BME280;57919;56.194;95.716;2022-10-17T14:00:02;98790.28;;;3.84;64.85
70458;BME280;57919;56.194;95.716;2022-10-17T14:10:19;98791.13;;;3.72;65.12
70458;BME280;57919;56.194;95.716;2022-10-17T14:20:22;98792.09;;;3.71;65.06
70458;BME280;57919;56.194;95.716;2022-10-17T14:40:28;98785.31;;;4.05;64.78
70458;BME280;57919;56.194;95.716;2022-10-17T14:50:31;98768.28;;;4.18;64.33
70458;BME280;57919;56.194;95.716;2022-10-17T15:00:33;98772.16;;;4.27;64.12
70458;BME280;57919;56.194;95.716;2022-10-17T15:10:36;98780.38;;;4.37;64.43
70458;BME280;57919;56.194;95.716;2022-10-17T15:20:42;98772.38;;;4.24;64.99
70458;BME280;57919;56.194;95.716;2022-10-17T15:30:44;98763.03;;;4.17;65.45
70458;BME280;57919;56.194;95.716;2022-10-17T15:40:46;98768.28;;;4.18;65.51
70458;BME280;57919;56.194;95.716;2022-10-17T15:50:51;98751.59;;;4.15;65.60
70458;BME280;57919;56.194;95.716;2022-10-17T16:00:53;98765.28;;;4.10;65.75
70458;BME280;57919;56.194;95.716;2022-10-17T16:10:55;98741.63;;;4.04;65.75
70458;BME280;57919;56.194;95.716;2022-10-17T16:20:57;98740.13;;;3.87;66.11
70458;BME280;57919;56.194;95.716;2022-10-17T16:30:59;98729.03;;;3.54;66.05
70458;BME280;57919;56.194;95.716;2022-10-17T16:41:01;98750.25;;;3.70;66.32
70458;BME280;57919;56.194;95.716;2022-10-17T16:51:03;98741.06;;;3.74;66.35
70458;BME280;57919;56.194;95.716;2022-10-17T17:01:10;98729.41;;;3.75;66.28
70458;BME280;57919;56.194;95.716;2022-10-17T17:11:15;98727.81;;;3.85;66.74
70458;BME280;57919;56.194;95.716;2022-10-17T17:21:18;98724.47;;;3.81;66.97
70458;BME280;57919;56.194;95.716;2022-10-17T17:31:22;98716.22;;;3.72;66.98
70458;BME280;57919;56.194;95.716;2022-10-17T17:41:25;98714.31;;;3.99;67.08
70458;BME280;57919;56.194;95.716;2022-10-17T17:51:27;98719.25;;;4.31;66.52
70458;BME280;57919;56.194;95.716;2022-10-17T18:01:31;98725.34;;;4.45;66.89
70458;BME280;57919;56.194;95.716;2022-10-17T18:11:38;98708.63;;;4.42;66.95
70458;BME280;57919;56.194;95.716;2022-10-17T18:21:40;98730.13;;;4.53;66.93
70458;BME280;57919;56.194;95.716;2022-10-17T18:31:42;98733.13;;;4.61;67.23
70458;BME280;57919;56.194;95.716;2022-10-17T18:41:44;98715.97;;;4.64;67.78
70458;BME280;57919;56.194;95.716;2022-10-17T18:51:46;98721.97;;;4.67;67.69
70458;BME280;57919;56.194;95.716;2022-10-17T19:01:48;98731.13;;;4.89;67.16
70458;BME280;57919;56.194;95.716;2022-10-17T19:11:50;98741.84;;;4.89;67.58
70458;BME280;57919;56.194;95.716;2022-10-17T19:21:52;98726.44;;;4.79;68.26
70458;BME280;57919;56.194;95.716;2022-10-17T19:31:54;98718.53;;;4.65;68.88
70458;BME280;57919;56.194;95.716;2022-10-17T19:41:56;98712.25;;;4.53;69.12
70458;BME280;57919;56.194;95.716;2022-10-17T19:51:58;98717.63;;;4.41;69.57
70458;BME280;57919;56.194;95.716;2022-10-17T20:02:00;98703.03;;;4.58;69.16
70458;BME280;57919;56.194;95.716;2022-10-17T20:12:02;98715.25;;;4.49;69.30
70458;BME280;57919;56.194;95.716;2022-10-17T20:22:04;98696.16;;;4.66;69.43
70458;BME280;57919;56.194;95.716;2022-10-17T20:32:05;98675.47;;;4.68;69.18
70458;BME280;57919;56.194;95.716;2022-10-17T20:42:07;98686.59;;;4.99;69.34
70458;BME280;57919;56.194;95.716;2022-10-17T20:52:10;98688.47;;;5.33;68.50
70458;BME280;57919;56.194;95.716;2022-10-17T21:02:12;98672.22;;;5.94;67.73
70458;BME280;57919;56.194;95.716;2022-10-17T21:12:14;98675.53;;;6.42;67.54
70458;BME280;57919;56.194;95.716;2022-10-17T21:22:16;98665.53;;;6.55;67.18
70458;BME280;57919;56.194;95.716;2022-10-17T21:32:18;98650.72;;;6.61;67.27
70458;BME280;57919;56.194;95.716;2022-10-17T21:42:20;98647.63;;;6.88;67.20
70458;BME280;57919;56.194;95.716;2022-10-17T21:52:22;98634.06;;;6.89;66.60
70458;BME280;57919;56.194;95.716;2022-10-17T22:02:24;98620.66;;;6.78;66.91
70458;BME280;57919;56.194;95.716;2022-10-17T22:12:26;98635.63;;;6.92;66.62
70458;BME280;57919;56.194;95.716;2022-10-17T22:22:29;98647.72;;;6.97;66.19
70458;BME280;57919;56.194;95.716;2022-10-17T22:32:30;98654.16;;;7.06;66.21
70458;BME280;57919;56.194;95.716;2022-10-17T22:42:32;98661.31;;;7.28;66.14
70458;BME280;57919;56.194;95.716;2022-10-17T22:52:34;98666.72;;;7.49;65.74
70458;BME280;57919;56.194;95.716;2022-10-17T23:02:36;98668.19;;;7.73;64.72
70458;BME280;57919;56.194;95.716;2022-10-17T23:12:39;98673.69;;;7.93;64.79
70458;BME280;57919;56.194;95.716;2022-10-17T23:22:41;98675.31;;;8.05;64.20
70458;BME280;57919;56.194;95.716;2022-10-17T23:32:42;98679.06;;;8.14;64.02
70458;BME280;57919;56.194;95.716;2022-10-17T23:42:45;98681.53;;;8.26;63.32
70458;BME280;57919;56.194;95.716;2022-10-17T23:52:46;98680.91;;;8.34;63.09
